Terminal Aerodrome Forecast
Issued by NWS Wilmington, NC

Home | Current Version | Previous Version | Text Only | Print | Product List | Glossary On
Versions: 1 2 3 4 5 6 7 8 9 10 11 12 13 14 15 16 17 18 19 20 21 22 23 24 25
045
FTUS42 KILM 061136 CCA
TAFILM
TAF COR
KILM 061136Z 0612/0712 02008KT P6SM BKN060 BKN120
     FM062200 02008KT P6SM SCT040 BKN050
     FM070300 36011G20KT P6SM -RA SCT025 OVC050=

USA.gov is the U.S. government's official web portal to all federal, state and local government web resources and services.